Terminal Aerodrome Forecast
Issued by NWS

Home | Current Version | Previous Version | Text Only | Print | Product List | Glossary On
Versions: 1 2 3 4 5 6 7 8 9 10 11 12 13 14 15 16 17 18 19 20
000
FTAK31 PANC 240540
TAFADU
TAF
PADU 240540Z 2406/2506 27014KT 6SM -SHRASN SCT017 BKN025
      TEMPO 2406/2409 3SM -SHSN BKN017
     FM240900 29016KT 4SM -SHSN BKN017
     FM241400 30012G18KT 6SM -SHSN SCT017 BKN025
     FM242000 30015G22KT P6SM VCSH SCT025 BKN035
      AMD NOT SKED 2406/2415=

USA.gov is the U.S. government's official web portal to all federal, state and local government web resources and services.